Time;durP1;ratioP1;P1;durP2;ratioP2;P2;SDS_P1;SDS_P2;PMS_P1;PMS_P2;Temp;Humidity;BMP_temperature;BMP_pressure;BME280_temperature;BME280_humidity;BME280_pressure;Samples;Min_cycle;Max_cycle;Signal;HPM_P1;HPM_P2
2023/03/30 00:01:21;;;;;;;1999.90;999.90;;;13.00;99.90;;;;;;5053001;28;20025;-75
2023/03/30 00:03:48;;;;;;;1999.90;999.90;;;13.00;99.90;;;;;;5052863;28;20021;-74
2023/03/30 00:06:21;;;;;;;1999.90;999.90;;;12.90;99.90;;;;;;5052822;28;20025;-74
2023/03/30 00:08:49;;;;;;;1999.90;999.90;;;12.90;99.90;;;;;;5033235;28;20030;-70
2023/03/30 00:11:16;;;;;;;1999.90;999.90;;;12.90;99.90;;;;;;5033185;28;20025;-74
2023/03/30 00:13:42;;;;;;;1999.90;999.90;;;12.90;99.90;;;;;;5032768;28;20095;-74
2023/03/30 00:16:11;;;;;;;1999.90;999.90;;;12.90;99.90;;;;;;5032876;28;20024;-74
2023/03/30 00:18:38;;;;;;;1999.90;999.90;;;13.00;99.90;;;;;;5033216;28;20105;-70
2023/03/30 00:21:04;;;;;;;1999.90;999.90;;;13.00;99.90;;;;;;5032826;28;20018;-69
2023/03/30 00:23:31;;;;;;;1999.90;999.90;;;13.00;99.90;;;;;;5033247;28;20112;-74
2023/03/30 00:25:57;;;;;;;1999.90;999.90;;;13.10;99.90;;;;;;5052240;28;20025;-74
2023/03/30 00:28:24;;;;;;;1999.90;999.90;;;13.10;99.90;;;;;;5052757;28;20084;-74
2023/03/30 00:30:52;;;;;;;1999.90;999.90;;;13.00;99.90;;;;;;5052654;28;20491;-75
2023/03/30 00:33:18;;;;;;;1999.90;999.90;;;13.00;99.90;;;;;;5052748;28;20056;-70
2023/03/30 00:35:53;;;;;;;1999.90;999.90;;;13.00;99.90;;;;;;5052782;28;20021;-74
2023/03/30 00:38:22;;;;;;;1999.90;999.90;;;13.00;99.90;;;;;;5051886;28;20068;-74
2023/03/30 00:40:56;;;;;;;1999.90;999.90;;;13.00;99.90;;;;;;5052797;28;20021;-74
2023/03/30 00:43:22;;;;;;;1999.90;999.90;;;13.00;99.90;;;;;;5055115;28;20021;-69
2023/03/30 00:45:49;;;;;;;1999.90;999.90;;;13.10;99.90;;;;;;5056569;28;20482;-69
2023/03/30 00:48:23;;;;;;;1999.90;999.90;;;13.20;99.90;;;;;;5056697;28;20569;-69
2023/03/30 00:51:06;;;;;;;1999.90;999.90;;;13.30;99.90;;;;;;5056536;28;20068;-73
2023/03/30 00:53:36;;;;;;;1999.90;999.90;;;13.30;99.90;;;;;;5056457;28;20547;-69
2023/03/30 00:56:06;;;;;;;1999.90;999.90;;;13.30;99.90;;;;;;5056509;28;20029;-74
2023/03/30 00:58:33;;;;;;;1999.90;999.90;;;13.30;99.90;;;;;;5056504;28;20658;-70
2023/03/30 01:01:01;;;;;;;1999.90;999.90;;;13.30;99.90;;;;;;5055834;28;20391;-69
2023/03/30 01:03:31;;;;;;;1999.90;999.90;;;13.30;99.90;;;;;;5056131;28;20020;-74
2023/03/30 01:05:59;;;;;;;1999.90;999.90;;;13.30;99.90;;;;;;5056232;28;20040;-74
2023/03/30 01:08:31;;;;;;;1999.90;999.90;;;13.20;99.90;;;;;;5056007;28;20440;-69
2023/03/30 01:11:00;;;;;;;1999.90;999.90;;;13.20;99.90;;;;;;5056320;28;20028;-69
2023/03/30 01:13:31;;;;;;;1999.90;999.90;;;13.20;99.90;;;;;;5056103;28;20096;-70
2023/03/30 01:16:12;;;;;;;1999.90;999.90;;;13.20;99.90;;;;;;5055830;28;20484;-74
2023/03/30 01:18:56;;;;;;;1999.90;999.90;;;13.20;99.90;;;;;;5035418;28;20029;-69
2023/03/30 01:21:34;;;;;;;1999.90;999.90;;;13.20;99.90;;;;;;5035999;28;20477;-69
2023/03/30 01:24:03;;;;;;;1999.90;999.90;;;13.20;99.90;;;;;;5039578;28;20078;-70
2023/03/30 01:26:45;;;;;;;1999.90;999.90;;;13.20;99.90;;;;;;5055817;28;20024;-69
2023/03/30 01:29:36;;;;;;;1999.90;999.90;;;13.20;99.90;;;;;;5055987;28;20029;-69
2023/03/30 01:32:08;;;;;;;1999.90;999.90;;;13.20;99.90;;;;;;5055953;28;20044;-69
2023/03/30 01:34:48;;;;;;;1999.90;999.90;;;13.10;99.90;;;;;;5055691;28;20032;-74
2023/03/30 01:37:31;;;;;;;1999.90;999.90;;;13.10;99.90;;;;;;5055652;28;20025;-69
2023/03/30 01:40:09;;;;;;;1999.90;999.90;;;13.20;99.90;;;;;;5055412;28;20100;-69
2023/03/30 01:42:45;;;;;;;1999.90;999.90;;;13.30;99.90;;;;;;5055148;28;20025;-74
2023/03/30 01:45:13;;;;;;;1999.90;999.90;;;13.30;99.90;;;;;;5055193;28;20053;-70
2023/03/30 01:48:25;;;;;;;1999.90;999.90;;;13.30;99.90;;;;;;5055705;28;20032;-73
2023/03/30 01:50:59;;;;;;;1999.90;999.90;;;13.20;99.90;;;;;;5055440;28;20037;-69
2023/03/30 01:53:31;;;;;;;1999.90;999.90;;;13.30;99.90;;;;;;5055751;28;20060;-74
2023/03/30 01:56:06;;;;;;;1999.90;999.90;;;13.30;99.90;;;;;;5055798;28;20083;-73
2023/03/30 01:58:45;;;;;;;1999.90;999.90;;;13.30;99.90;;;;;;5055592;28;20025;-74
2023/03/30 02:01:16;;;;;;;1999.90;999.90;;;13.30;99.90;;;;;;5054639;28;20420;-69
2023/03/30 02:03:45;;;;;;;1999.90;999.90;;;13.30;99.90;;;;;;5055105;28;20508;-69
2023/03/30 02:06:38;;;;;;;1999.90;999.90;;;13.30;99.90;;;;;;5055037;28;20013;-69
2023/03/30 02:09:09;;;;;;;;;;;13.30;99.90;;;;;;5035439;28;20129;-73
2023/03/30 02:11:36;;;;;;;1999.90;999.90;;;13.30;99.90;;;;;;5035209;28;19951;-74
2023/03/30 02:14:04;;;;;;;1999.90;999.90;;;13.20;99.90;;;;;;5034918;28;20026;-74
2023/03/30 02:16:40;;;;;;;1999.90;999.90;;;13.20;99.90;;;;;;5037894;28;20029;-69
2023/03/30 02:19:06;;;;;;;1999.90;999.90;;;13.20;99.90;;;;;;5054055;28;20369;-70
2023/03/30 02:21:32;;;;;;;1999.90;999.90;;;13.20;99.90;;;;;;5055088;28;20028;-74
2023/03/30 02:23:59;;;;;;;1999.90;999.90;;;13.20;99.90;;;;;;5054550;28;20087;-69
2023/03/30 02:26:26;;;;;;;1999.90;999.90;;;13.30;99.90;;;;;;5054680;28;20032;-74
2023/03/30 02:28:52;;;;;;;1999.90;999.90;;;13.20;99.90;;;;;;5054879;28;20036;-69
2023/03/30 02:31:18;;;;;;;1999.90;999.90;;;13.20;99.90;;;;;;5054728;28;20429;-69
2023/03/30 02:34:13;;;;;;;1999.90;999.90;;;13.20;99.90;;;;;;5054686;28;20043;-69
2023/03/30 02:36:41;;;;;;;1999.90;999.90;;;13.20;99.90;;;;;;5053129;28;20532;-74
2023/03/30 02:39:23;;;;;;;1999.90;999.90;;;13.20;99.90;;;;;;5054458;28;20021;-74
2023/03/30 02:42:13;;;;;;;1999.90;999.90;;;13.20;99.90;;;;;;5054256;28;20029;-69
2023/03/30 02:44:47;;;;;;;1999.90;999.90;;;13.20;99.90;;;;;;5054615;28;20027;-74
2023/03/30 02:47:17;;;;;;;1999.90;999.90;;;13.20;99.90;;;;;;5054696;28;20029;-69
2023/03/30 02:50:04;;;;;;;1999.90;999.90;;;13.20;99.90;;;;;;5053829;28;20589;-69
2023/03/30 02:52:39;;;;;;;1999.90;999.90;;;13.20;99.90;;;;;;5054606;28;20037;-74
2023/03/30 02:55:22;;;;;;;1999.90;999.90;;;13.20;99.90;;;;;;5054093;28;20025;-69
2023/03/30 02:57:50;;;;;;;1999.90;999.90;;;13.30;99.90;;;;;;5053995;28;20403;-71
2023/03/30 03:00:24;;;;;;;1999.90;999.90;;;13.30;99.90;;;;;;5053971;28;20103;-76
2023/03/30 03:02:56;;;;;;;1999.90;999.90;;;13.20;99.90;;;;;;5054145;28;20395;-71
2023/03/30 03:05:24;;;;;;;1999.90;999.90;;;13.20;99.90;;;;;;5053527;28;20111;-76
2023/03/30 03:07:50;;;;;;;1999.90;999.90;;;13.20;99.90;;;;;;5054036;28;20263;-71
2023/03/30 03:10:15;;;;;;;1999.90;999.90;;;13.10;99.90;;;;;;5053952;28;20089;-71
2023/03/30 03:12:43;;;;;;;1999.90;999.90;;;13.10;99.90;;;;;;5054142;28;20029;-76
2023/03/30 03:15:10;;;;;;;1999.90;999.90;;;13.10;99.90;;;;;;5053721;28;20044;-71
2023/03/30 03:17:35;;;;;;;1999.90;999.90;;;13.00;99.90;;;;;;5053917;28;20028;-71
2023/03/30 03:20:06;;;;;;;1999.90;999.90;;;13.10;99.90;;;;;;5053600;28;20032;-71
2023/03/30 03:22:32;;;;;;;1999.90;999.90;;;13.00;99.90;;;;;;5053858;28;20021;-71
2023/03/30 03:24:57;;;;;;;1999.90;999.90;;;13.00;99.90;;;;;;5053668;28;20033;-71
2023/03/30 03:27:23;;;;;;;1999.90;999.90;;;13.10;99.90;;;;;;5053780;28;20028;-71
2023/03/30 03:29:49;;;;;;;1999.90;999.90;;;13.00;99.90;;;;;;5053492;28;20017;-71
2023/03/30 03:32:15;;;;;;;1999.90;999.90;;;13.10;99.90;;;;;;5053675;28;20025;-69
2023/03/30 03:34:43;;;;;;;1999.90;999.90;;;13.10;99.90;;;;;;5053521;28;20028;-69
2023/03/30 03:37:09;;;;;;;1999.90;999.90;;;13.10;99.90;;;;;;5053434;28;20399;-69
2023/03/30 03:39:36;;;;;;;1999.90;999.90;;;13.10;99.90;;;;;;5053525;28;20029;-74
2023/03/30 03:42:03;;;;;;;1999.90;999.90;;;13.20;99.90;;;;;;5052998;28;20033;-74
2023/03/30 03:44:29;;;;;;;1999.90;999.90;;;13.20;99.90;;;;;;5053321;28;20472;-69
2023/03/30 03:46:55;;;;;;;1999.90;999.90;;;13.20;99.90;;;;;;5053565;28;20024;-69
2023/03/30 03:49:21;;;;;;;1999.90;999.90;;;13.20;99.90;;;;;;5052844;28;20061;-69
2023/03/30 03:51:46;;;;;;;1999.90;999.90;;;13.20;99.90;;;;;;5053230;28;20031;-70
2023/03/30 03:54:12;;;;;;;1999.90;999.90;;;13.20;99.90;;;;;;5053077;28;20040;-69
2023/03/30 03:56:37;;;;;;;1999.90;999.90;;;13.20;99.90;;;;;;5053517;28;20029;-69
2023/03/30 03:59:03;;;;;;;1999.90;999.90;;;13.20;99.90;;;;;;5053191;28;20032;-69
2023/03/30 04:01:30;;;;;;;1999.90;999.90;;;13.20;99.90;;;;;;5052624;28;20029;-69
2023/03/30 04:03:56;;;;;;;1999.90;999.90;;;13.20;99.90;;;;;;5052729;28;20017;-74
2023/03/30 04:06:21;;;;;;;1999.90;999.90;;;13.20;99.90;;;;;;5053028;28;20033;-74
2023/03/30 04:08:47;;;;;;;1999.90;999.90;;;13.20;99.90;;;;;;5033150;28;20083;-74
2023/03/30 04:11:13;;;;;;;1999.90;999.90;;;13.20;99.90;;;;;;5033387;28;20025;-71
2023/03/30 04:13:39;;;;;;;1999.90;999.90;;;13.20;99.90;;;;;;5033088;28;20109;-74
2023/03/30 04:16:06;;;;;;;1999.90;999.90;;;13.20;99.90;;;;;;5032739;28;20036;-69
2023/03/30 04:18:33;;;;;;;1999.90;999.90;;;13.20;99.90;;;;;;5051096;28;20025;-74
2023/03/30 04:21:06;;;;;;;1999.90;999.90;;;13.20;99.90;;;;;;5052806;28;20020;-74
2023/03/30 04:23:35;;;;;;;1999.90;999.90;;;13.20;99.90;;;;;;5053098;28;20492;-74
2023/03/30 04:26:04;;;;;;;1999.90;999.90;;;13.20;99.90;;;;;;5032815;28;20036;-70
2023/03/30 04:28:34;;;;;;;1999.90;999.90;;;13.20;99.90;;;;;;5032888;28;20028;-69
2023/03/30 04:31:02;;;;;;;1999.90;999.90;;;13.20;99.90;;;;;;5032873;28;20022;-69
2023/03/30 04:33:28;;;;;;;1999.90;999.90;;;13.20;99.90;;;;;;5033129;28;20018;-74
2023/03/30 04:35:54;;;;;;;1999.90;999.90;;;13.20;99.90;;;;;;5032733;28;20017;-74
2023/03/30 04:38:22;;;;;;;1999.90;999.90;;;13.20;99.90;;;;;;5032590;28;20033;-69
2023/03/30 04:40:49;;;;;;;1999.90;999.90;;;13.20;99.90;;;;;;5032773;28;20093;-69
2023/03/30 04:43:18;;;;;;;1999.90;999.90;;;13.20;99.90;;;;;;5051651;28;20025;-70
2023/03/30 04:45:51;;;;;;;1999.90;999.90;;;13.20;99.90;;;;;;5052801;28;20029;-74
2023/03/30 04:48:18;;;;;;;1999.90;999.90;;;13.20;99.90;;;;;;5052790;28;20079;-74
2023/03/30 04:50:45;;;;;;;1999.90;999.90;;;13.20;99.90;;;;;;5052778;28;20033;-70
2023/03/30 04:53:13;;;;;;;1999.90;999.90;;;13.20;99.90;;;;;;5052282;28;20029;-69
2023/03/30 04:55:39;;;;;;;1999.90;999.90;;;13.20;99.90;;;;;;5052674;28;20029;-74
2023/03/30 04:58:05;;;;;;;1999.90;999.90;;;13.20;99.90;;;;;;5049659;28;20551;-69
2023/03/30 05:00:31;;;;;;;1999.90;999.90;;;13.10;99.90;;;;;;5051798;28;20488;-74
2023/03/30 05:02:56;;;;;;;1999.90;999.90;;;13.10;99.90;;;;;;5051754;28;20104;-74
2023/03/30 05:05:22;;;;;;;1999.90;999.90;;;13.10;99.90;;;;;;5052016;28;20067;-69
2023/03/30 05:07:47;;;;;;;1999.90;999.90;;;13.10;99.90;;;;;;5052385;28;20041;-69
2023/03/30 05:10:13;;;;;;;1999.90;999.90;;;13.10;99.90;;;;;;5052102;28;20068;-69
2023/03/30 05:12:39;;;;;;;1999.90;999.90;;;13.10;99.90;;;;;;5052128;28;20052;-69
2023/03/30 05:15:05;;;;;;;1999.90;999.90;;;13.10;99.90;;;;;;5052368;28;20442;-74
2023/03/30 05:17:34;;;;;;;1999.90;999.90;;;13.10;99.90;;;;;;5052018;28;20053;-71
2023/03/30 05:20:00;;;;;;;1999.90;999.90;;;13.00;99.90;;;;;;5052324;28;20748;-71
2023/03/30 05:22:25;;;;;;;1999.90;999.90;;;13.00;99.90;;;;;;5052088;28;20021;-74
2023/03/30 05:24:51;;;;;;;1999.90;999.90;;;13.10;99.90;;;;;;5051514;28;20037;-74
2023/03/30 05:27:17;;;;;;;1999.90;999.90;;;13.10;99.90;;;;;;5051877;28;20033;-74
2023/03/30 05:29:43;;;;;;;1999.90;999.90;;;13.10;99.90;;;;;;5054684;28;20047;-69
2023/03/30 05:32:09;;;;;;;1999.90;999.90;;;13.10;99.90;;;;;;5055533;28;20412;-70
2023/03/30 05:34:35;;;;;;;1999.90;999.90;;;13.10;99.90;;;;;;5055710;28;20083;-69
2023/03/30 05:37:01;;;;;;;1999.90;999.90;;;13.10;99.90;;;;;;5055223;28;20025;-74
2023/03/30 05:39:26;;;;;;;1999.90;999.90;;;13.00;99.90;;;;;;5045638;28;20030;-74
2023/03/30 05:41:52;;;;;;;1999.90;999.90;;;13.00;99.90;;;;;;5046196;28;20048;-73
2023/03/30 05:44:18;;;;;;;1999.90;999.90;;;13.00;99.90;;;;;;5055699;28;20040;-69
2023/03/30 05:46:43;;;;;;;1999.90;999.90;;;13.00;99.90;;;;;;5053781;28;20033;-74
2023/03/30 05:49:09;;;;;;;1999.90;999.90;;;13.00;99.90;;;;;;5046450;28;20049;-73
2023/03/30 05:51:35;;;;;;;1999.90;999.90;;;13.00;99.90;;;;;;5043328;28;20464;-74
2023/03/30 05:54:02;;;;;;;1999.90;999.90;;;12.90;99.90;;;;;;5046547;28;20036;-69
2023/03/30 05:56:28;;;;;;;1999.90;999.90;;;12.90;99.90;;;;;;5053978;28;20053;-70
2023/03/30 05:58:54;;;;;;;1999.90;999.90;;;13.00;99.90;;;;;;5052682;28;20025;-69
2023/03/30 06:01:20;;;;;;;1999.90;999.90;;;12.90;99.90;;;;;;5058645;28;20098;-74
2023/03/30 06:03:46;;;;;;;1999.90;999.90;;;12.90;99.90;;;;;;5055351;28;20499;-72
2023/03/30 06:06:12;;;;;;;1999.90;999.90;;;12.90;99.90;;;;;;5050447;28;20021;-69
2023/03/30 06:08:38;;;;;;;1999.90;999.90;;;12.90;99.90;;;;;;5052627;28;20033;-69
2023/03/30 06:11:04;;;;;;;1999.90;999.90;;;12.90;99.90;;;;;;5052859;28;20019;-69
2023/03/30 06:13:30;;;;;;;1999.90;999.90;;;12.80;99.90;;;;;;5052719;28;20049;-70
2023/03/30 06:15:56;;;;;;;1999.90;999.90;;;12.90;99.90;;;;;;5052742;28;20052;-74
2023/03/30 06:18:21;;;;;;;1999.90;999.90;;;12.90;99.90;;;;;;5042273;28;20140;-71
2023/03/30 06:20:48;;;;;;;1999.90;999.90;;;12.90;99.90;;;;;;5049673;28;20460;-71
2023/03/30 06:23:14;;;;;;;1999.90;999.90;;;13.00;99.90;;;;;;5049744;28;20036;-71
2023/03/30 06:25:40;;;;;;;1999.90;999.90;;;13.00;99.90;;;;;;5048343;28;20468;-71
2023/03/30 06:28:06;;;;;;;1999.90;999.90;;;13.00;99.90;;;;;;5052661;28;20032;-75
2023/03/30 06:30:32;;;;;;;1999.90;999.90;;;13.10;99.90;;;;;;5055263;28;20083;-75
2023/03/30 06:32:58;;;;;;;1999.90;999.90;;;13.10;99.90;;;;;;5050827;28;20036;-75
2023/03/30 06:35:23;;;;;;;1999.90;999.90;;;13.10;99.90;;;;;;5055541;28;20028;-71
2023/03/30 06:37:49;;;;;;;1999.90;999.90;;;13.10;99.90;;;;;;5052564;28;20029;-71
2023/03/30 06:40:16;;;;;;;1999.90;999.90;;;13.20;99.90;;;;;;5047152;28;20041;-75
2023/03/30 06:42:45;;;;;;;1999.90;999.90;;;13.20;99.90;;;;;;5046616;28;20033;-75
2023/03/30 06:45:12;;;;;;;1999.90;999.90;;;13.20;99.90;;;;;;5044371;28;20346;-75
2023/03/30 06:47:38;;;;;;;1999.90;999.90;;;13.20;99.90;;;;;;5046439;28;20467;-71
2023/03/30 06:50:04;;;;;;;1999.90;999.90;;;13.20;99.90;;;;;;5049402;28;20037;-70
2023/03/30 06:52:34;;;;;;;1999.90;999.90;;;13.30;99.90;;;;;;5062564;28;20029;-75
2023/03/30 06:54:59;;;;;;;1999.90;999.90;;;13.30;99.90;;;;;;5046836;28;21371;-71
2023/03/30 06:57:25;;;;;;;1999.90;999.90;;;13.30;99.90;;;;;;5043052;28;20040;-71
2023/03/30 06:59:51;;;;;;;1999.90;999.90;;;13.30;99.90;;;;;;5042882;28;20546;-72
2023/03/30 07:02:16;;;;;;;1999.90;999.90;;;13.30;99.90;;;;;;5049664;28;20060;-71
2023/03/30 07:04:45;;;;;;;1999.90;999.90;;;13.30;99.90;;;;;;5048297;28;20029;-71
2023/03/30 07:07:11;;;;;;;1999.90;999.90;;;13.30;99.90;;;;;;5050707;28;20044;-71
2023/03/30 07:09:37;;;;;;;1999.90;999.90;;;13.30;99.90;;;;;;5051015;28;20029;-71
2023/03/30 07:12:03;;;;;;;1999.90;999.90;;;13.40;99.90;;;;;;5049540;28;20498;-75
2023/03/30 07:14:29;;;;;;;1999.90;999.90;;;13.50;99.90;;;;;;5048204;28;20404;-71
2023/03/30 07:16:55;;;;;;;1999.90;999.90;;;13.40;99.90;;;;;;5049302;28;20063;-71
2023/03/30 07:19:21;;;;;;;1999.90;999.90;;;13.50;99.90;;;;;;5048785;28;20503;-72
2023/03/30 07:21:47;;;;;;;1999.90;999.90;;;13.50;99.90;;;;;;5048232;28;20067;-75
2023/03/30 07:24:12;;;;;;;1999.90;999.90;;;13.40;99.90;;;;;;5050143;28;20141;-75
2023/03/30 07:26:38;;;;;;;1999.90;999.90;;;13.50;99.90;;;;;;5050758;28;20400;-71
2023/03/30 07:29:04;;;;;;;1999.90;999.90;;;13.50;99.90;;;;;;5050766;28;20024;-71
2023/03/30 07:31:30;;;;;;;1999.90;999.90;;;13.50;99.90;;;;;;5042591;28;20029;-75
2023/03/30 07:33:56;;;;;;;1999.90;999.90;;;13.40;99.90;;;;;;5048745;28;20036;-75
2023/03/30 07:36:22;;;;;;;1999.90;999.90;;;13.50;99.90;;;;;;5050765;28;20037;-75
2023/03/30 07:38:47;;;;;;;1999.90;999.90;;;13.40;99.90;;;;;;5047599;28;20052;-75
2023/03/30 07:41:15;;;;;;;1999.90;999.90;;;13.50;99.90;;;;;;5047563;28;20032;-71
2023/03/30 07:43:41;;;;;;;1999.90;999.90;;;13.40;99.90;;;;;;5057741;28;20027;-73
2023/03/30 07:46:08;;;;;;;1999.90;999.90;;;13.30;99.90;;;;;;5044549;28;20033;-75
2023/03/30 07:48:34;;;;;;;1999.90;999.90;;;13.30;99.90;;;;;;5049732;28;20052;-75
2023/03/30 07:51:11;;;;;;;1999.90;999.90;;;13.40;99.90;;;;;;5044010;28;20044;-76
2023/03/30 07:53:38;;;;;;;1999.90;999.90;;;13.50;99.90;;;;;;5052633;28;20020;-71
2023/03/30 07:56:04;;;;;;;1999.90;999.90;;;13.70;99.90;;;;;;5044838;28;20037;-71
2023/03/30 07:58:30;;;;;;;1999.90;999.90;;;13.80;99.90;;;;;;5059409;28;20025;-75
2023/03/30 08:00:56;;;;;;;1999.90;999.90;;;13.80;99.90;;;;;;5049326;28;20051;-71
2023/03/30 08:03:22;;;;;;;1999.90;999.90;;;14.00;99.90;;;;;;5048323;28;20507;-71
2023/03/30 08:05:55;;;;;;;1999.90;999.90;;;14.00;99.90;;;;;;5044947;28;20053;-71
2023/03/30 08:08:21;;;;;;;1999.90;999.90;;;13.90;99.90;;;;;;5048302;28;20033;-71
2023/03/30 08:10:46;;;;;;;1999.90;999.90;;;13.90;99.90;;;;;;5046992;28;20798;-75
2023/03/30 08:13:12;;;;;;;1999.90;999.90;;;14.30;99.90;;;;;;5046855;28;20131;-75
2023/03/30 08:15:38;;;;;;;1999.90;999.90;;;14.30;99.90;;;;;;5048932;28;20443;-71
2023/03/30 08:18:06;;;;;;;1999.90;999.90;;;15.40;99.90;;;;;;5060914;28;20112;-71
2023/03/30 08:20:36;;;;;;;1999.90;999.90;;;15.20;99.90;;;;;;5048903;28;20035;-71
2023/03/30 08:23:06;;;;;;;1999.90;999.90;;;14.90;99.90;;;;;;5047490;28;20025;-75
2023/03/30 08:25:32;;;;;;;1999.90;999.90;;;15.20;99.90;;;;;;5048720;28;20020;-76
2023/03/30 08:27:58;;;;;;;1999.90;999.90;;;14.90;99.90;;;;;;5048568;28;20472;-75
2023/03/30 08:30:23;;;;;;;1999.90;999.90;;;15.80;99.90;;;;;;5048985;28;20516;-71
2023/03/30 08:32:50;;;;;;;1999.90;999.90;;;16.90;99.90;;;;;;5048211;28;20481;-71
2023/03/30 08:35:16;;;;;;;1999.90;999.90;;;16.90;99.90;;;;;;5046063;28;20029;-72
2023/03/30 08:37:42;;;;;;;1999.90;999.90;;;17.10;99.90;;;;;;5047034;28;20048;-75
2023/03/30 08:40:11;;;;;;;1999.90;999.90;;;17.40;99.90;;;;;;5044555;28;20029;-71
2023/03/30 08:42:49;;;;;;;1999.90;999.90;;;16.80;99.90;;;;;;5045951;28;20025;-71
2023/03/30 08:45:15;;;;;;;1999.90;999.90;;;17.50;99.90;;;;;;5037114;28;20049;-72
2023/03/30 08:47:43;;;;;;;1999.90;999.90;;;18.70;99.90;;;;;;5046354;28;20416;-72
2023/03/30 08:50:16;;;;;;;1999.90;999.90;;;18.50;99.90;;;;;;5047161;28;20144;-77
2023/03/30 08:52:42;;;;;;;1999.90;999.90;;;18.70;99.90;;;;;;5047846;28;20075;-72
2023/03/30 08:55:33;;;;;;;1999.90;999.90;;;18.60;99.90;;;;;;5046283;28;20052;-76
2023/03/30 08:58:35;;;;;;;1999.90;999.90;;;17.80;99.90;;;;;;5048828;28;20518;-72
2023/03/30 09:01:07;;;;;;;1999.90;999.90;;;17.30;99.90;;;;;;5048359;28;20028;-71
2023/03/30 09:03:48;;;;;;;1999.90;999.90;;;16.10;99.90;;;;;;5050009;28;20162;-76
2023/03/30 09:06:50;;;;;;;1999.90;999.90;;;16.40;99.90;;;;;;5052448;28;20028;-76
2023/03/30 09:09:19;;;;;;;1999.90;999.90;;;16.80;99.90;;;;;;5050777;28;20017;-75
2023/03/30 09:11:50;;;;;;;1999.90;999.90;;;16.40;99.90;;;;;;5042539;28;20398;-71
2023/03/30 09:14:33;;;;;;;1999.90;999.90;;;16.30;99.90;;;;;;5050773;28;20029;-73
2023/03/30 09:17:11;;;;;;;1999.90;999.90;;;16.50;99.90;;;;;;5050940;28;20500;-71
2023/03/30 09:19:49;;;;;;;1999.90;999.90;;;17.10;99.90;;;;;;5051714;28;20036;-71
2023/03/30 09:22:17;;;;;;;1999.90;999.90;;;17.10;99.90;;;;;;5051770;28;20511;-76
2023/03/30 09:24:43;;;;;;;1999.90;999.90;;;18.30;99.90;;;;;;5051817;28;20025;-72
2023/03/30 09:27:13;;;;;;;1999.90;999.90;;;19.70;99.90;;;;;;5048625;28;20047;-72
2023/03/30 09:29:45;;;;;;;1999.90;999.90;;;19.60;99.90;;;;;;5049080;28;20177;-72
2023/03/30 09:32:39;;;;;;;1999.90;999.90;;;19.80;99.90;;;;;;5046474;28;20484;-72
2023/03/30 09:35:10;;;;;;;1999.90;999.90;;;18.70;99.90;;;;;;5048941;28;20056;-71
2023/03/30 09:37:36;;;;;;;1999.90;999.90;;;17.90;99.90;;;;;;5048109;28;20566;-73
2023/03/30 09:40:23;;;;;;;1999.90;999.90;;;18.50;99.90;;;;;;5068658;28;20379;-77
2023/03/30 09:43:06;;;;;;;1999.90;999.90;;;18.80;99.90;;;;;;5057094;28;20044;-75
2023/03/30 09:45:33;;;;;;;1999.90;999.90;;;18.40;99.90;;;;;;5053051;28;20039;-72
2023/03/30 09:48:07;;;;;;;1999.90;999.90;;;17.70;99.90;;;;;;5054346;28;20033;-75
2023/03/30 09:50:41;;;;;;;1999.90;999.90;;;17.40;99.90;;;;;;5055688;28;20040;-73
2023/03/30 09:53:28;;;;;;;1999.90;999.90;;;17.50;99.90;;;;;;5040410;28;20085;-71
2023/03/30 09:56:25;;;;;;;1999.90;999.90;;;17.20;99.90;;;;;;5049997;28;20036;-76
2023/03/30 09:58:50;;;;;;;1999.90;999.90;;;17.30;99.90;;;;;;5048256;28;20101;-76
2023/03/30 10:01:18;;;;;;;1999.90;999.90;;;16.90;99.90;;;;;;5050090;28;20439;-75
2023/03/30 10:04:03;;;;;;;1999.90;999.90;;;17.00;99.90;;;;;;5049888;28;20029;-76
2023/03/30 10:06:32;;;;;;;1999.90;999.90;;;17.30;99.90;;;;;;5044416;28;20029;-74
2023/03/30 10:08:57;;;;;;;1999.90;999.90;;;17.40;99.90;;;;;;5049581;28;20453;-73
2023/03/30 10:11:35;;;;;;;1999.90;999.90;;;17.00;99.90;;;;;;5050747;28;20033;-75
2023/03/30 10:14:01;;;;;;;1999.90;999.90;;;16.80;99.90;;;;;;5046566;28;20048;-74
2023/03/30 10:16:31;;;;;;;1999.90;999.90;;;17.00;99.90;;;;;;5049492;28;20025;-72
2023/03/30 10:19:02;;;;;;;1999.90;999.90;;;16.80;99.90;;;;;;5048845;28;20392;-73
2023/03/30 10:21:37;;;;;;;1999.90;999.90;;;16.80;99.90;;;;;;5053282;28;20025;-77
2023/03/30 10:24:21;;;;;;;1999.90;999.90;;;17.00;99.90;;;;;;5051803;28;20518;-74
2023/03/30 10:26:50;;;;;;;1999.90;999.90;;;17.00;99.90;;;;;;5049510;28;20035;-75
2023/03/30 10:29:18;;;;;;;1999.90;999.90;;;16.80;99.90;;;;;;5050534;28;20511;-72
2023/03/30 10:31:47;;;;;;;1999.90;999.90;;;16.80;99.90;;;;;;5049357;28;20028;-72
2023/03/30 10:34:35;;;;;;;1999.90;999.90;;;17.10;99.90;;;;;;5050558;28;20438;-77
2023/03/30 10:37:05;;;;;;;1999.90;999.90;;;16.90;99.90;;;;;;5052969;28;20043;-75
2023/03/30 10:39:32;;;;;;;1999.90;999.90;;;16.70;99.90;;;;;;5049719;28;20025;-77
2023/03/30 10:42:03;;;;;;;1999.90;999.90;;;16.70;99.90;;;;;;5052869;28;20020;-76
2023/03/30 10:44:57;;;;;;;1999.90;999.90;;;16.40;99.90;;;;;;5045430;28;20025;-72
2023/03/30 10:47:29;;;;;;;1999.90;999.90;;;16.40;99.90;;;;;;5042047;28;20102;-75
2023/03/30 10:49:57;;;;;;;1999.90;999.90;;;16.40;99.90;;;;;;5042152;28;20061;-71
2023/03/30 10:52:47;;;;;;;1999.90;999.90;;;16.60;99.90;;;;;;5050714;28;20028;-75
2023/03/30 10:55:50;;;;;;;1999.90;999.90;;;16.30;99.90;;;;;;5047113;28;20326;-76
2023/03/30 10:58:28;;;;;;;1999.90;999.90;;;16.20;99.90;;;;;;5047894;28;20506;-71
2023/03/30 11:01:02;;;;;;;1999.90;999.90;;;16.10;99.90;;;;;;5040257;28;20024;-78
2023/03/30 11:03:31;;;;;;;1999.90;999.90;;;15.90;99.90;;;;;;5058305;28;20036;-74
2023/03/30 11:06:12;;;;;;;1999.90;999.90;;;16.00;99.90;;;;;;5038902;28;20523;-75
2023/03/30 11:08:42;;;;;;;1999.90;999.90;;;16.00;99.90;;;;;;5047697;28;20021;-72
2023/03/30 11:11:29;;;;;;;1999.90;999.90;;;16.10;99.90;;;;;;5038440;28;20020;-72
2023/03/30 11:14:03;;;;;;;1999.90;999.90;;;16.20;99.90;;;;;;5049130;28;20024;-76
2023/03/30 11:16:56;;;;;;;1999.90;999.90;;;16.30;99.90;;;;;;5041803;28;20029;-75
2023/03/30 11:19:37;;;;;;;1999.90;999.90;;;16.00;99.90;;;;;;5047397;28;20032;-72
2023/03/30 11:22:29;;;;;;;1999.90;999.90;;;16.30;99.90;;;;;;5046807;28;20037;-77
2023/03/30 11:24:55;;;;;;;1999.90;999.90;;;16.20;99.90;;;;;;5048518;28;20024;-76
2023/03/30 11:27:38;;;;;;;1999.90;999.90;;;16.30;99.90;;;;;;5047815;28;20029;-77
2023/03/30 11:30:06;;;;;;;1999.90;999.90;;;16.20;99.90;;;;;;5048480;28;20368;-77
2023/03/30 11:32:37;;;;;;;1999.90;999.90;;;16.10;99.90;;;;;;5051776;28;20360;-78
2023/03/30 11:35:33;;;;;;;1999.90;999.90;;;16.20;99.90;;;;;;5048349;28;20036;-75
2023/03/30 11:38:02;;;;;;;1999.90;999.90;;;16.10;99.90;;;;;;5043849;28;20037;-76
2023/03/30 11:40:39;;;;;;;1999.90;999.90;;;16.30;99.90;;;;;;5054075;28;20017;-76
2023/03/30 11:43:06;;;;;;;1999.90;999.90;;;16.50;99.90;;;;;;5052300;28;20025;-76
2023/03/30 11:45:47;;;;;;;1999.90;999.90;;;16.60;99.90;;;;;;5050453;28;20508;-74
2023/03/30 11:48:19;;;;;;;1999.90;999.90;;;16.70;99.90;;;;;;5043456;28;20049;-78
2023/03/30 11:51:12;;;;;;;1999.90;999.90;;;16.80;99.90;;;;;;5040952;28;20052;-76
2023/03/30 11:53:56;;;;;;;1999.90;999.90;;;16.50;99.90;;;;;;5050525;28;20035;-78
2023/03/30 11:56:57;;;;;;;1999.90;999.90;;;16.30;99.90;;;;;;5047767;28;20033;-76
2023/03/30 11:59:47;;;;;;;1999.90;999.90;;;16.20;99.90;;;;;;5027629;28;20098;-73
2023/03/30 12:02:30;;;;;;;1999.90;999.90;;;16.40;99.90;;;;;;5046072;28;20059;-72
2023/03/30 12:05:06;;;;;;;1999.90;999.90;;;16.60;99.90;;;;;;5057629;28;20047;-77
2023/03/30 12:08:06;;;;;;;1999.90;999.90;;;16.40;99.90;;;;;;5060344;28;20662;-76
2023/03/30 12:10:37;;;;;;;1999.90;999.90;;;16.50;99.90;;;;;;5063231;28;20056;-76
2023/03/30 12:13:03;;;;;;;1999.90;999.90;;;16.60;99.90;;;;;;5050631;28;20028;-71
2023/03/30 12:16:11;;;;;;;1999.90;999.90;;;16.40;99.90;;;;;;5048866;28;20588;-71
2023/03/30 12:18:48;;;;;;;1999.90;999.90;;;16.70;99.90;;;;;;5060600;28;20044;-75